createdAt,value
2023-05-03T00:02:25.032Z,95498.00
2023-05-03T00:04:55.252Z,95502.88
2023-05-03T00:07:22.895Z,95497.22
2023-05-03T00:09:50.162Z,95496.97
2023-05-03T00:12:17.389Z,95501.25
2023-05-03T00:14:46.286Z,95497.81
2023-05-03T00:17:13.605Z,95494.31
2023-05-03T00:19:40.945Z,95493.72
2023-05-03T00:22:09.080Z,95496.63
2023-05-03T00:24:36.245Z,95496.38
2023-05-03T00:27:05.026Z,95486.00
2023-05-03T00:29:32.628Z,95490.50
2023-05-03T00:32:00.485Z,95493.16
2023-05-03T00:34:27.701Z,95492.34
2023-05-03T00:36:54.668Z,95487.03
2023-05-03T00:39:21.825Z,95493.97
2023-05-03T00:41:48.831Z,95487.84
2023-05-03T00:44:16.431Z,95488.88
2023-05-03T00:46:43.575Z,95490.72
2023-05-03T00:49:10.978Z,95492.81
2023-05-03T00:51:38.131Z,95489.56
2023-05-03T00:54:05.783Z,95493.84
2023-05-03T00:56:44.415Z,95493.22
2023-05-03T00:59:19.315Z,95496.34
2023-05-03T01:01:50.965Z,95500.63
2023-05-03T01:04:20.282Z,95501.88
2023-05-03T01:07:23.485Z,95506.63
2023-05-03T01:10:15.761Z,95508.66
2023-05-03T01:13:01.862Z,95502.56
2023-05-03T01:15:48.926Z,95505.22
2023-05-03T01:18:22.146Z,95506.81
2023-05-03T01:20:50.952Z,95500.72
2023-05-03T01:23:40.349Z,95508.66
2023-05-03T01:26:24.305Z,95503.59
2023-05-03T01:28:52.114Z,95507.88
2023-05-03T01:31:37.135Z,95504.16
2023-05-03T01:34:51.921Z,95505.41
2023-05-03T01:37:19.025Z,95501.97
2023-05-03T01:39:51.695Z,95495.41
2023-05-03T01:42:20.647Z,95510.53
2023-05-03T01:44:49.674Z,95511.09
2023-05-03T01:47:17.386Z,95511.94
2023-05-03T01:49:44.433Z,95514.56
2023-05-03T01:52:11.446Z,95513.75
2023-05-03T01:54:38.858Z,95511.69
2023-05-03T01:57:05.834Z,95511.69
2023-05-03T01:59:33.239Z,95514.34
2023-05-03T02:02:00.300Z,95518.63
2023-05-03T02:04:27.416Z,95508.00
2023-05-03T02:06:55.290Z,95515.75
2023-05-03T02:09:23.025Z,95518.63
2023-05-03T02:11:50.116Z,95517.59
2023-05-03T02:14:17.562Z,95520.25
2023-05-03T02:16:44.748Z,95521.06
2023-05-03T02:19:11.982Z,95517.59
2023-05-03T02:21:40.097Z,95517.59
2023-05-03T02:24:07.478Z,95527.97
2023-05-03T02:26:34.735Z,95521.06
2023-05-03T02:29:01.780Z,95521.06
2023-05-03T02:31:32.050Z,95527.19
2023-05-03T02:33:59.638Z,95515.75
2023-05-03T02:36:27.018Z,95523.69
2023-05-03T02:38:54.757Z,95526.34
2023-05-03T02:41:21.715Z,95536.19
2023-05-03T02:43:49.460Z,95535.16
2023-05-03T02:46:16.540Z,95530.88
2023-05-03T02:48:43.759Z,95526.34
2023-05-03T02:51:11.607Z,95530.88
2023-05-03T02:53:38.655Z,95528.22
2023-05-03T02:56:06.453Z,95526.59
2023-05-03T02:58:33.627Z,95534.56
2023-05-03T03:01:03.080Z,95523.09
2023-05-03T03:03:30.973Z,95529.25
2023-05-03T03:05:58.124Z,95521.50
2023-05-03T03:08:25.485Z,95532.94
2023-05-03T03:10:54.706Z,95531.31
2023-05-03T03:13:21.884Z,95542.75
2023-05-03T03:15:49.137Z,95541.91
2023-05-03T03:18:19.715Z,95547.22
2023-05-03T03:20:47.225Z,95543.78
2023-05-03T03:23:14.915Z,95550.34
2023-05-03T03:25:43.103Z,95554.41
2023-05-03T03:28:10.287Z,95547.47
2023-05-03T03:30:38.463Z,95560.75
2023-05-03T03:33:16.388Z,95553.81
2023-05-03T03:35:43.607Z,95552.19
2023-05-03T03:38:12.027Z,95553.81
2023-05-03T03:40:47.196Z,95555.06
2023-05-03T03:43:14.441Z,95553.44
2023-05-03T03:45:41.910Z,95551.38
2023-05-03T03:48:10.636Z,95555.84
2023-05-03T03:50:37.897Z,95560.38
2023-05-03T03:53:06.109Z,95567.50
2023-05-03T03:55:34.128Z,95564.84
2023-05-03T03:58:01.790Z,95565.09
2023-05-03T04:00:30.058Z,95558.75
2023-05-03T04:03:07.731Z,95563.09
2023-05-03T04:05:35.803Z,95569.59
2023-05-03T04:08:03.576Z,95573.88
2023-05-03T04:10:33.110Z,95570.41
2023-05-03T04:13:00.175Z,95579.38
2023-05-03T04:15:27.483Z,95581.00
2023-05-03T04:17:57.593Z,95580.22
2023-05-03T04:20:25.244Z,95574.31
2023-05-03T04:22:52.950Z,95581.25
2023-05-03T04:25:25.706Z,95579.03
2023-05-03T04:27:59.236Z,95589.88
2023-05-03T04:30:29.396Z,95584.56
2023-05-03T04:33:00.692Z,95577.84
2023-05-03T04:35:29.881Z,95585.81
2023-05-03T04:37:59.134Z,95589.50
2023-05-03T04:40:27.893Z,95590.50
2023-05-03T04:43:05.482Z,95596.03
2023-05-03T04:45:36.234Z,95596.03
2023-05-03T04:48:05.401Z,95593.59
2023-05-03T04:50:34.370Z,95586.06
2023-05-03T04:53:01.701Z,95603.38
2023-05-03T04:55:30.657Z,95606.03
2023-05-03T04:57:59.121Z,95608.50
2023-05-03T05:00:26.184Z,95616.47
2023-05-03T05:02:59.527Z,95611.94
2023-05-03T05:05:29.492Z,95612.75
2023-05-03T05:07:58.326Z,95613.81
2023-05-03T05:10:28.344Z,95618.06
2023-05-03T05:12:56.803Z,95617.03
2023-05-03T05:15:24.066Z,95625.00
2023-05-03T05:17:51.611Z,95629.50
2023-05-03T05:20:20.228Z,95625.00
2023-05-03T05:22:49.929Z,95634.81
2023-05-03T05:25:17.036Z,95632.97
2023-05-03T05:27:44.708Z,95631.31
2023-05-03T05:30:12.024Z,95626.03
2023-05-03T05:32:41.546Z,95636.47
2023-05-03T05:35:11.744Z,95632.16
2023-05-03T05:37:38.885Z,95642.56
2023-05-03T05:40:08.364Z,95646.06
2023-05-03T05:42:43.554Z,95646.22
2023-05-03T05:45:11.412Z,95649.75
2023-05-03T05:47:40.256Z,95644.44
2023-05-03T05:50:16.978Z,95658.28
2023-05-03T05:52:53.020Z,95661.16
2023-05-03T05:55:21.153Z,95657.28
2023-05-03T05:57:49.532Z,95669.72
2023-05-03T06:00:21.506Z,95666.06
2023-05-03T06:02:48.926Z,95666.22
2023-05-03T06:05:19.093Z,95663.38
2023-05-03T06:07:46.655Z,95660.72
2023-05-03T06:10:13.695Z,95658.88
2023-05-03T06:12:45.565Z,95662.34
2023-05-03T06:15:17.444Z,95667.66
2023-05-03T06:17:45.446Z,95661.53
2023-05-03T06:20:12.828Z,95663.16
2023-05-03T06:22:41.351Z,95666.59
2023-05-03T06:25:10.650Z,95665.59
2023-05-03T06:27:38.710Z,95666.41
2023-05-03T06:30:08.224Z,95665.38
2023-05-03T06:32:35.611Z,95664.31
2023-05-03T06:35:03.518Z,95670.47
2023-05-03T06:37:30.834Z,95668.47
2023-05-03T06:39:57.834Z,95673.13
2023-05-03T06:42:24.872Z,95670.25
2023-05-03T06:45:06.014Z,95675.53
2023-05-03T06:47:32.981Z,95673.13
2023-05-03T06:50:00.173Z,95675.53
2023-05-03T06:52:27.377Z,95679.22
2023-05-03T06:54:54.328Z,95678.19
2023-05-03T06:57:22.305Z,95685.38
2023-05-03T06:59:49.215Z,95680.84
2023-05-03T07:02:17.746Z,95676.34
2023-05-03T07:04:44.668Z,95673.50
2023-05-03T07:07:11.678Z,95688.59
2023-05-03T07:09:43.167Z,95687.56
2023-05-03T07:12:11.189Z,95685.75
2023-05-03T07:14:39.783Z,95681.22
2023-05-03T07:17:07.452Z,95688.41
2023-05-03T07:19:34.542Z,95687.56
2023-05-03T07:22:03.382Z,95692.44
2023-05-03T07:24:30.578Z,95683.66
2023-05-03T07:26:58.168Z,95690.59
2023-05-03T07:29:26.185Z,95692.22
2023-05-03T07:31:53.746Z,95688.78
2023-05-03T07:34:21.339Z,95694.66
2023-05-03T07:36:48.313Z,95693.84
2023-05-03T07:39:15.779Z,95700.78
2023-05-03T07:41:42.668Z,95692.00
2023-05-03T07:44:09.772Z,95685.88
2023-05-03T07:46:36.733Z,95692.59
2023-05-03T07:49:06.423Z,95688.91
2023-05-03T07:51:38.421Z,95688.09
2023-05-03T07:54:06.366Z,95691.56
2023-05-03T07:56:33.391Z,95697.44
2023-05-03T07:59:09.276Z,95696.66
2023-05-03T08:01:38.227Z,95687.66
2023-05-03T08:04:05.833Z,95692.97
2023-05-03T08:06:35.517Z,95690.91
2023-05-03T08:09:04.691Z,95685.38
2023-05-03T08:11:31.897Z,95690.69
2023-05-03T08:13:58.787Z,95686.16
2023-05-03T08:16:26.165Z,95677.19
2023-05-03T08:18:53.161Z,95680.44
2023-05-03T08:21:20.239Z,95681.22
2023-05-03T08:23:47.137Z,95674.88
2023-05-03T08:26:15.571Z,95677.13
2023-05-03T08:28:42.918Z,95674.47
2023-05-03T08:31:09.931Z,95677.13
2023-05-03T08:33:37.237Z,95676.88
2023-05-03T08:36:04.451Z,95683.59
2023-05-03T08:38:31.476Z,95684.19
2023-05-03T08:41:06.275Z,95679.31
2023-05-03T08:43:36.997Z,95685.00
2023-05-03T08:46:04.128Z,95691.72
2023-05-03T08:48:31.715Z,95695.19
2023-05-03T08:51:00.384Z,95677.41
2023-05-03T08:53:27.350Z,95693.09
2023-05-03T08:55:54.305Z,95689.41
2023-05-03T08:58:21.528Z,95690.03
2023-05-03T09:00:48.636Z,95681.03
2023-05-03T09:03:15.872Z,95682.66
2023-05-03T09:05:44.421Z,95680.56
2023-05-03T09:08:13.593Z,95682.19
2023-05-03T09:10:42.767Z,95683.59
2023-05-03T09:13:10.906Z,95689.72
2023-05-03T09:15:38.431Z,95691.13
2023-05-03T09:18:19.729Z,95690.09
2023-05-03T09:20:52.757Z,95692.53
2023-05-03T09:23:26.442Z,95688.00
2023-05-03T09:25:53.659Z,95695.78
2023-05-03T09:28:21.385Z,95685.72
2023-05-03T09:30:50.268Z,95685.50
2023-05-03T09:33:29.164Z,95678.34
2023-05-03T09:36:02.789Z,95677.31
2023-05-03T09:38:33.527Z,95682.16
2023-05-03T09:41:07.386Z,95686.66
2023-05-03T09:43:38.082Z,95679.28
2023-05-03T09:46:14.663Z,95681.72
2023-05-03T09:48:42.209Z,95679.88
2023-05-03T09:51:11.297Z,95681.50
2023-05-03T09:53:39.823Z,95678.59
2023-05-03T09:56:09.990Z,95680.22
2023-05-03T09:58:37.677Z,95673.66
2023-05-03T10:01:04.891Z,95670.78
2023-05-03T10:03:40.937Z,95671.59
2023-05-03T10:06:36.228Z,95669.72
2023-05-03T10:09:25.113Z,95663.38
2023-05-03T10:11:58.976Z,95666.63
2023-05-03T10:14:26.487Z,95664.56
2023-05-03T10:17:01.284Z,95655.88
2023-05-03T10:19:40.705Z,95664.34
2023-05-03T10:22:11.973Z,95658.81
2023-05-03T10:25:02.565Z,95667.63
2023-05-03T10:28:03.606Z,95670.44
2023-05-03T10:30:40.662Z,95659.03
2023-05-03T10:33:13.582Z,95661.47
2023-05-03T10:35:44.056Z,95663.09
2023-05-03T10:38:22.468Z,95650.44
2023-05-03T10:40:49.966Z,95659.41
2023-05-03T10:43:35.603Z,95665.53
2023-05-03T10:46:11.972Z,95661.03
2023-05-03T10:48:39.012Z,95666.34
2023-05-03T10:51:28.971Z,95663.69
2023-05-03T10:53:56.087Z,95661.03
2023-05-03T10:56:24.005Z,95660.81
2023-05-03T10:58:55.981Z,95662.44
2023-05-03T11:01:24.675Z,95664.06
2023-05-03T11:04:10.640Z,95655.03
2023-05-03T11:06:41.203Z,95663.81
2023-05-03T11:09:12.043Z,95658.50
2023-05-03T11:11:41.069Z,95658.06
2023-05-03T11:14:09.528Z,95662.31
2023-05-03T11:16:40.687Z,95655.16
2023-05-03T11:19:08.015Z,95659.22
2023-05-03T11:21:36.368Z,95658.19
2023-05-03T11:24:06.700Z,95652.63
2023-05-03T11:26:40.289Z,95650.78
2023-05-03T11:29:10.622Z,95655.06
2023-05-03T11:31:37.823Z,95657.50
2023-05-03T11:34:06.664Z,95639.94
2023-05-03T11:36:34.185Z,95651.13
2023-05-03T11:39:01.205Z,95647.44
2023-05-03T11:41:28.328Z,95645.38
2023-05-03T11:44:07.722Z,95651.50
2023-05-03T11:46:39.055Z,95649.66
2023-05-03T11:49:06.296Z,95650.47
2023-05-03T11:51:33.720Z,95645.13
2023-05-03T11:54:12.803Z,95644.09
2023-05-03T11:56:40.551Z,95646.75
2023-05-03T11:59:07.583Z,95645.50
2023-05-03T12:01:34.866Z,95643.44
2023-05-03T12:04:05.468Z,95641.78
2023-05-03T12:06:36.060Z,95640.53
2023-05-03T12:09:05.341Z,95645.59
2023-05-03T12:11:45.054Z,95637.06
2023-05-03T12:14:13.042Z,95636.03
2023-05-03T12:16:56.966Z,95633.03
2023-05-03T12:19:32.159Z,95637.44
2023-05-03T12:24:33.255Z,95627.13
2023-05-03T12:27:02.816Z,95633.84
2023-05-03T12:29:34.518Z,95624.00
2023-05-03T12:32:04.306Z,95632.81
2023-05-03T12:34:35.669Z,95620.31
2023-05-03T12:37:05.688Z,95626.66
2023-05-03T12:39:33.999Z,95624.59
2023-05-03T12:44:35.074Z,95625.38
2023-05-03T12:47:04.369Z,95627.25
2023-05-03T12:49:32.142Z,95624.13
2023-05-03T12:54:33.764Z,95613.63
2023-05-03T12:57:08.354Z,95614.75
2023-05-03T12:59:41.793Z,95614.88
2023-05-03T13:07:16.833Z,95610.59
2023-05-03T13:12:20.451Z,95607.94
2023-05-03T13:14:52.533Z,95601.69
2023-05-03T13:17:22.833Z,95613.25
2023-05-03T13:19:51.436Z,95606.09
2023-05-03T13:22:18.785Z,95614.09
2023-05-03T13:24:48.041Z,95606.31
2023-05-03T13:27:16.497Z,95598.34
2023-05-03T13:29:43.716Z,95610.84
2023-05-03T13:32:12.457Z,95605.53
2023-05-03T13:34:39.673Z,95606.31
2023-05-03T13:37:06.874Z,95588.16
2023-05-03T13:39:33.963Z,95591.19
2023-05-03T13:42:01.285Z,95593.59
2023-05-03T13:44:28.297Z,95589.91
2023-05-03T13:46:56.503Z,95588.84
2023-05-03T13:49:23.441Z,95588.63
2023-05-03T13:51:50.909Z,95584.09
2023-05-03T13:54:18.108Z,95584.91
2023-05-03T13:56:45.767Z,95575.91
2023-05-03T13:59:16.523Z,95582.81
2023-05-03T14:01:43.941Z,95575.06
2023-05-03T14:04:11.253Z,95584.22
2023-05-03T14:06:41.355Z,95579.47
2023-05-03T14:09:09.985Z,95576.59
2023-05-03T14:11:38.021Z,95578.19
2023-05-03T14:14:04.999Z,95576.09
2023-05-03T14:19:03.696Z,95589.78
2023-05-03T14:21:31.766Z,95584.47
2023-05-03T14:23:58.947Z,95577.84
2023-05-03T14:26:26.680Z,95581.09
2023-05-03T14:28:53.759Z,95583.88
2023-05-03T14:31:20.747Z,95574.94
2023-05-03T14:33:47.897Z,95584.66
2023-05-03T14:36:14.886Z,95584.19
2023-05-03T14:38:41.935Z,95584.53
2023-05-03T14:41:09.250Z,95586.16
2023-05-03T14:43:37.472Z,95585.91
2023-05-03T14:46:04.634Z,95585.91
2023-05-03T14:48:31.630Z,95585.66
2023-05-03T14:50:58.806Z,95581.72
2023-05-03T14:53:25.841Z,95585.56
2023-05-03T14:55:54.450Z,95579.72
2023-05-03T14:58:21.709Z,95579.72
2023-05-03T15:00:49.098Z,95579.59
2023-05-03T15:03:16.159Z,95591.66
2023-05-03T15:05:44.482Z,95587.44
2023-05-03T15:08:14.008Z,95592.31
2023-05-03T15:10:42.542Z,95586.97
2023-05-03T15:13:10.206Z,95590.06
2023-05-03T15:15:38.648Z,95584.50
2023-05-03T15:18:07.987Z,95593.66
2023-05-03T15:20:35.873Z,95586.69
2023-05-03T15:23:04.871Z,95584.13
2023-05-03T15:25:33.068Z,95590.59
2023-05-03T15:28:03.661Z,95582.16
2023-05-03T15:30:32.833Z,95586.19
2023-05-03T15:33:00.975Z,95576.31
2023-05-03T15:35:28.587Z,95576.91
2023-05-03T15:37:55.759Z,95583.84
2023-05-03T15:40:26.058Z,95578.53
2023-05-03T15:42:54.076Z,95573.19
2023-05-03T15:45:23.167Z,95578.84
2023-05-03T15:47:50.643Z,95590.31
2023-05-03T15:50:18.350Z,95583.16
2023-05-03T15:52:48.577Z,95582.09
2023-05-03T15:55:15.785Z,95582.91
2023-05-03T15:57:45.408Z,95586.13
2023-05-03T16:00:16.265Z,95589.59
2023-05-03T16:02:43.480Z,95578.34
2023-05-03T16:05:11.607Z,95583.47
2023-05-03T16:07:39.135Z,95580.56
2023-05-03T16:10:09.350Z,95592.84
2023-05-03T16:12:37.206Z,95580.81
2023-05-03T16:15:05.297Z,95583.69
2023-05-03T16:17:35.426Z,95583.69
2023-05-03T16:20:05.735Z,95584.19
2023-05-03T16:22:32.857Z,95585.22
2023-05-03T16:24:59.728Z,95588.16
2023-05-03T16:27:26.690Z,95584.66
2023-05-03T16:29:54.253Z,95573.44
2023-05-03T16:32:22.134Z,95568.31
2023-05-03T16:34:50.433Z,95569.41
2023-05-03T16:37:17.514Z,95569.41
2023-05-03T16:39:44.715Z,95562.44
2023-05-03T16:42:12.047Z,95572.28
2023-05-03T16:44:39.281Z,95561.84
2023-05-03T16:47:06.385Z,95567.97
2023-05-03T16:49:36.984Z,95562.09
2023-05-03T16:52:04.784Z,95572.97
2023-05-03T16:54:32.314Z,95563.38
2023-05-03T16:56:59.414Z,95568.72
2023-05-03T16:59:27.912Z,95565.47
2023-05-03T17:01:54.950Z,95567.31
2023-05-03T17:04:22.554Z,95568.38
2023-05-03T17:06:49.650Z,95573.72
2023-05-03T17:09:17.393Z,95580.88
2023-05-03T17:11:44.498Z,95572.88
2023-05-03T17:14:11.627Z,95572.88
2023-05-03T17:16:44.538Z,95572.88
2023-05-03T17:19:11.641Z,95576.59
2023-05-03T17:21:38.612Z,95577.41
2023-05-03T17:24:05.963Z,95579.84
2023-05-03T17:26:32.893Z,95587.84
2023-05-03T17:28:59.890Z,95585.16
2023-05-03T17:31:27.233Z,95585.16
2023-05-03T17:33:54.257Z,95593.16
2023-05-03T17:36:22.511Z,95591.28
2023-05-03T17:38:50.316Z,95581.69
2023-05-03T17:41:17.428Z,95580.09
2023-05-03T17:43:44.727Z,95580.31
2023-05-03T17:46:14.660Z,95586.69
2023-05-03T17:48:48.360Z,95578.38
2023-05-03T17:51:15.494Z,95583.69
2023-05-03T17:53:43.054Z,95592.75
2023-05-03T17:56:18.308Z,95594.81
2023-05-03T17:58:46.725Z,95592.66
2023-05-03T18:01:15.770Z,95585.13
2023-05-03T18:03:43.392Z,95591.72
2023-05-03T18:06:13.305Z,95589.53
2023-05-03T18:08:41.460Z,95590.59
2023-05-03T18:11:09.401Z,95586.78
2023-05-03T18:16:08.236Z,95599.19
2023-05-03T18:18:35.757Z,95590.88
2023-05-03T18:21:04.788Z,95598.88
2023-05-03T18:23:33.432Z,95597.25
2023-05-03T18:26:00.711Z,95600.16
2023-05-03T18:28:27.787Z,95598.97
2023-05-03T18:30:58.408Z,95598.41
2023-05-03T18:33:25.381Z,95607.47
2023-05-03T18:35:53.096Z,95600.16
2023-05-03T18:38:21.511Z,95597.97
2023-05-03T18:40:49.748Z,95600.88
2023-05-03T18:43:17.381Z,95605.59
2023-05-03T18:45:44.952Z,95606.91
2023-05-03T18:48:12.098Z,95598.91
2023-05-03T18:50:39.752Z,95611.41
2023-05-03T18:53:07.322Z,95613.75
2023-05-03T18:55:34.555Z,95615.22
2023-05-03T18:58:01.620Z,95616.31
2023-05-03T19:00:28.599Z,95621.28
2023-05-03T19:02:55.580Z,95627.06
2023-05-03T19:05:22.586Z,95629.97
2023-05-03T19:07:49.569Z,95625.88
2023-05-03T19:10:17.690Z,95629.00
2023-05-03T19:12:44.948Z,95634.31
2023-05-03T19:15:12.345Z,95633.53
2023-05-03T19:17:41.875Z,95633.97
2023-05-03T19:20:10.389Z,95639.78
2023-05-03T19:22:37.913Z,95629.94
2023-05-03T19:25:06.252Z,95636.28
2023-05-03T19:27:33.566Z,95623.91
2023-05-03T19:30:00.709Z,95632.25
2023-05-03T19:32:27.834Z,95632.25
2023-05-03T19:34:54.875Z,95633.53
2023-05-03T19:37:22.091Z,95629.22
2023-05-03T19:39:49.174Z,95626.81
2023-05-03T19:42:17.201Z,95628.66
2023-05-03T19:44:44.121Z,95627.25
2023-05-03T19:47:11.051Z,95628.88
2023-05-03T19:49:38.208Z,95630.94
2023-05-03T19:52:06.106Z,95633.63
2023-05-03T19:54:33.218Z,95632.22
2023-05-03T19:57:05.991Z,95638.63
2023-05-03T19:59:33.743Z,95634.53
2023-05-03T20:02:01.011Z,95633.75
2023-05-03T20:04:28.296Z,95632.13
2023-05-03T20:06:55.289Z,95637.69
2023-05-03T20:09:23.285Z,95628.06
2023-05-03T20:11:59.601Z,95624.81
2023-05-03T20:14:29.154Z,95630.38
2023-05-03T20:16:56.861Z,95634.06
2023-05-03T20:19:25.235Z,95635.94
2023-05-03T20:21:52.721Z,95633.72
2023-05-03T20:24:21.398Z,95628.63
2023-05-03T20:26:48.364Z,95629.09
2023-05-03T20:29:15.606Z,95625.38
2023-05-03T20:31:42.779Z,95626.66
2023-05-03T20:34:09.824Z,95620.78
2023-05-03T20:36:36.998Z,95628.97
2023-05-03T20:39:05.055Z,95626.31
2023-05-03T20:41:32.306Z,95628.63
2023-05-03T20:43:59.519Z,95627.00
2023-05-03T20:46:26.960Z,95628.84
2023-05-03T20:48:54.143Z,95636.25
2023-05-03T20:51:21.171Z,95631.97
2023-05-03T20:53:48.318Z,95631.41
2023-05-03T20:56:15.316Z,95626.31
2023-05-03T20:58:42.347Z,95640.66
2023-05-03T21:01:09.467Z,95633.94
2023-05-03T21:03:36.664Z,95636.59
2023-05-03T21:06:05.502Z,95637.63
2023-05-03T21:08:32.676Z,95633.59
2023-05-03T21:10:59.665Z,95633.00
2023-05-03T21:13:26.604Z,95635.88
2023-05-03T21:15:54.839Z,95633.44
2023-05-03T21:18:22.044Z,95628.34
2023-05-03T21:20:49.026Z,95627.56
2023-05-03T21:23:15.985Z,95629.63
2023-05-03T21:25:43.320Z,95624.75
2023-05-03T21:28:10.555Z,95627.19
2023-05-03T21:30:38.478Z,95626.00
2023-05-03T21:33:05.693Z,95627.88
2023-05-03T21:35:32.745Z,95626.25
2023-05-03T21:37:59.721Z,95625.66
2023-05-03T21:40:26.866Z,95620.56
2023-05-03T21:42:54.012Z,95618.94
2023-05-03T21:45:21.338Z,95614.63
2023-05-03T21:47:48.744Z,95622.84
2023-05-03T21:50:15.925Z,95614.75
2023-05-03T21:52:42.953Z,95626.75
2023-05-03T21:55:10.184Z,95623.50
2023-05-03T21:57:37.951Z,95626.41
2023-05-03T22:00:06.975Z,95630.91
2023-05-03T22:02:35.756Z,95633.78
2023-05-03T22:05:03.167Z,95632.19
2023-05-03T22:07:30.342Z,95634.00
2023-05-03T22:09:57.365Z,95627.31
2023-05-03T22:12:25.145Z,95626.16
2023-05-03T22:14:52.813Z,95623.25
2023-05-03T22:17:19.858Z,95629.59
2023-05-03T22:19:46.855Z,95623.69
2023-05-03T22:22:14.085Z,95632.69
2023-05-03T22:24:41.523Z,95634.56
2023-05-03T22:27:08.559Z,95628.88
2023-05-03T22:29:36.428Z,95628.88
2023-05-03T22:32:03.437Z,95635.03
2023-05-03T22:34:30.455Z,95631.78
2023-05-03T22:36:57.369Z,95633.03
2023-05-03T22:39:26.666Z,95629.53
2023-05-03T22:41:53.604Z,95635.09
2023-05-03T22:44:20.720Z,95643.06
2023-05-03T22:46:47.627Z,95633.69
2023-05-03T22:49:14.632Z,95640.03
2023-05-03T22:51:41.718Z,95634.97
2023-05-03T22:54:08.734Z,95635.63
2023-05-03T22:56:35.746Z,95636.22
2023-05-03T22:59:02.935Z,95634.38
2023-05-03T23:01:30.530Z,95629.53
2023-05-03T23:03:57.717Z,95635.63
2023-05-03T23:06:25.145Z,95629.72
2023-05-03T23:08:52.371Z,95631.56
2023-05-03T23:11:21.007Z,95634.47
2023-05-03T23:13:48.209Z,95631.22
2023-05-03T23:16:15.430Z,95628.56
2023-05-03T23:18:42.795Z,95628.78
2023-05-03T23:21:10.126Z,95624.50
2023-05-03T23:23:37.345Z,95624.75
2023-05-03T23:26:04.397Z,95626.56
2023-05-03T23:28:31.969Z,95620.66
2023-05-03T23:30:59.520Z,95619.84
2023-05-03T23:33:27.338Z,95618.47
2023-05-03T23:35:54.929Z,95623.78
2023-05-03T23:38:21.972Z,95616.25
2023-05-03T23:40:49.024Z,95619.72
2023-05-03T23:43:16.268Z,95609.34
2023-05-03T23:45:43.351Z,95606.88
2023-05-03T23:48:10.851Z,95609.53
2023-05-03T23:50:38.025Z,95615.88
2023-05-03T23:53:05.431Z,95618.75
2023-05-03T23:55:32.507Z,95612.84
2023-05-03T23:57:59.478Z,95618.16
